WMSAWMKA

Guest
Details From WMSA - Kuala Lumpur S Abdul Aziz Shah
To WMKA - Alor Setar Sultan Abdul Halim
Flight Number -
Tags generated
Created
Modified
Stats Distance 197 nm / 364 km
Max Altitude 22,600 ft / 6,888 m
Waypoints 5
Social Downloads 4
Likes 0
Share VATSIM

Download

Looking for another format? Having issues loading an existing format? Contact us
Advertisement - Login to hide

Notes

Basic altitude profile: - Ascent Rate: 2500ft/min - Ascent Speed: 400kts - Cruise Altitude: 36000ft - Cruise Speed: 420kts - Descent Rate: 1500ft/min - Descent Speed: 250kts Options: - Use NATs: yes - Use PACOTS: yes - Use low airways: yes - Use high airways: yes

Route

WMSA DAKUS A464 VIH R325 VAS WMKA

ID Type Via Altitude Latitude Longitude Leg Dist Tot Dist Heading (true) Name
O WMSA APT - 0 ft / 0 m 3.13058˚ 101.54933˚ - 0 nm - Kuala Lumpur S Abdul Aziz Shah
DAKUS FIX - 14,200 ft / 4,328 m 3.80389˚ 101.31750˚ 42 nm 42 nm 341° / 341° -
VIH VOR A464 (AWY-LO) 22,600 ft / 6,888 m 4.57303˚ 101.09361˚ 48 nm 90 nm 344° / 344° IPOH VOR-DME
VAS VOR R325 (AWY-LO) 8,500 ft / 2,591 m 6.18567˚ 100.39700˚ 105 nm 196 nm 337° / 337° ALOR STAR VOR-DME
O WMKA APT - 0 ft / 0 m 6.18967˚ 100.39818˚ 0 nm 196 nm 16° / 16° Alor Setar Sultan Abdul Halim

Altitude Profile

Advertisement - Login to hide

Weather


0- 5 10 15 20 25 30 35+ Temperature / ° C

Clouds and Precipitation
Forecast for 2017-12-12 06:00 UTC. Updated 6 minutes ago

Ground ~20,000 ft ~40,000 ft Winds

WMSA

Details ICAO WMSA (SZB)
Name Kuala Lumpur S Abdul Aziz Shah
Region Malaysia (Peninsular Malaysia)
Timezone Asia/Kuala_Lumpur (UTC+8.0)
Stats Elevation 90 ft / 27 m (AMSL)
Location 3.130583° 101.549334°
Runways 1
Magnetic Variation 0.027° W

METAR

WMSA 120300Z VRB03KT 9999 FEW017CB SCT019 BKN280 31/25 Q1014

Decode

TAF

Not found

Departure Runways

ID Width Length Bearing (true) Bearing (mag) Surface Threshold Offset Overrun Length
15 148 ft / 45 m 12,450 ft / 3,795 m 149.84° 149.87° Asphalt 0 ft / 0 m 200 ft / 61 m
33 148 ft / 45 m 12,450 ft / 3,795 m 329.84° 329.87° Asphalt 0 ft / 0 m 200 ft / 61 m

WMKA

Details ICAO WMKA (AOR)
Name Alor Setar Sultan Abdul Halim
Region Malaysia (Peninsular Malaysia)
Timezone Asia/Kuala_Lumpur (UTC+8.0)
Stats Elevation 15 ft / 5 m (AMSL)
Location 6.189666° 100.398184°
Runways 1
Magnetic Variation 0.229° W

METAR

WMKA 120300Z 30003KT 240V340 9999 FEW022 SCT140 BKN280 27/24 Q1014

Decode

TAF

Not found

Destination Runways

ID Width Length Bearing (true) Bearing (mag) Surface Threshold Offset Overrun Length
04 151 ft / 46 m 9,029 ft / 2,752 m 42.31° 42.54° Asphalt 0 ft / 0 m 60 ft / 18 m
22 151 ft / 46 m 9,029 ft / 2,752 m 222.32° 222.55° Asphalt 0 ft / 0 m 0 ft / 0 m

Approach Navaids

Runway Type Ident Frequency Range Bearing (true) Bearing (mag) Slope Elevation
04 Localiser IAS 111.70 MHz 18 nm / 33 km 42.47° 42.70° - 15 ft / 5 m (AMSL)
04 Glidescope IAS 111.70 MHz 10 nm / 19 km 42.31° 42.54° 3.00° 15 ft / 5 m (AMSL)

Popular Alternatives